Time;durP1;ratioP1;P1;durP2;ratioP2;P2;SDS_P1;SDS_P2;PMS_P1;PMS_P2;Temp;Humidity;BMP_temperature;BMP_pressure;BME280_temperature;BME280_humidity;BME280_pressure;Samples;Min_cycle;Max_cycle;Signal;HPM_P1;HPM_P2
2022/02/01 00:01:48;;;;;;;2.97;2.85;;;;;;;1.79;89.80;101492.38;6103094;23;20013;-69
2022/02/01 00:04:28;;;;;;;3.00;2.90;;;;;;;1.40;90.70;101441.63;6086923;23;20101;-69
2022/02/01 00:07:20;;;;;;;2.70;2.60;;;;;;;1.80;90.36;101508.78;6088700;23;20005;-70
2022/02/01 00:15:21;;;;;;;3.30;3.17;;;;;;;1.63;91.77;101479.53;6123346;23;20430;-70
2022/02/01 00:36:38;;;;;;;2.70;2.60;;;;;;;1.59;94.58;101535.56;6130100;23;20082;-70
2022/02/01 00:39:09;;;;;;;4.50;4.30;;;;;;;1.79;94.81;101584.69;6080501;23;20044;-70
2022/02/01 00:41:42;;;;;;;2.60;2.50;;;;;;;1.54;95.49;101540.75;6104423;23;20088;-70
2022/02/01 00:44:09;;;;;;;4.55;4.35;;;;;;;1.33;95.48;101514.91;6080058;23;20014;-70
2022/02/01 00:46:35;;;;;;;2.80;2.70;;;;;;;1.68;95.33;101583.84;6114654;23;20565;-70
2022/02/01 00:49:02;;;;;;;4.15;3.95;;;;;;;1.81;95.39;101587.28;6089212;23;20030;-70
2022/02/01 00:51:28;;;;;;;2.60;2.50;;;;;;;1.78;96.07;101581.25;6106879;23;20563;-70
2022/02/01 00:53:55;;;;;;;2.70;2.60;;;;;;;1.77;95.72;101587.28;6091744;23;20608;-69
2022/02/01 00:56:21;;;;;;;2.70;2.60;;;;;;;1.72;95.94;101593.31;6081485;23;20018;-70
2022/02/01 00:58:48;;;;;;;2.80;2.70;;;;;;;1.75;95.73;101603.69;6099156;23;20022;-69
2022/02/01 01:01:14;;;;;;;2.78;2.67;;;;;;;1.57;96.39;101582.13;6088319;23;20369;-70
2022/02/01 01:03:44;;;;;;;2.60;2.50;;;;;;;1.38;95.75;101542.50;6100736;23;20513;-69
2022/02/01 01:06:12;;;;;;;4.75;4.55;;;;;;;1.70;96.15;101600.22;6061941;23;20013;-70
2022/02/01 01:08:40;;;;;;;2.65;2.55;;;;;;;1.68;96.05;101589.88;6112861;23;20041;-70
2022/02/01 01:11:10;;;;;;;2.90;2.80;;;;;;;1.68;96.29;101581.25;6085819;23;20044;-70
2022/02/01 01:43:48;;;;;;;2.75;2.65;;;;;;;1.30;96.09;101533.00;6075641;23;20073;-69
2022/02/01 01:54:25;;;;;;;2.38;2.28;;;;;;;1.90;96.34;101613.16;6086804;23;20030;-70
2022/02/01 01:56:54;;;;;;;2.70;2.60;;;;;;;1.97;96.39;101612.28;6116477;23;20013;-70
2022/02/01 01:59:23;;;;;;;2.70;2.60;;;;;;;1.97;95.97;101614.88;6049520;23;20104;-70
2022/02/01 02:01:50;;;;;;;2.40;2.30;;;;;;;1.43;95.96;101536.47;6109311;23;20180;-69
2022/02/01 02:04:18;;;;;;;2.88;2.78;;;;;;;1.99;96.61;101618.31;6056959;23;20363;-72
2022/02/01 02:06:44;;;;;;;3.05;2.95;;;;;;;1.51;95.83;101556.28;6087854;23;20013;-70
2022/02/01 02:09:12;;;;;;;4.72;4.53;;;;;;;2.04;95.90;101624.34;6110624;23;20076;-70
2022/02/01 02:11:50;;;;;;;2.72;2.63;;;;;;;1.96;95.68;101626.06;6089884;23;20538;-72
2022/02/01 02:14:24;;;;;;;2.70;2.60;;;;;;;1.25;95.40;101503.72;6067237;23;20019;-72
2022/02/01 02:16:53;;;;;;;2.65;2.55;;;;;;;1.52;94.89;101563.16;6066126;23;20440;-70
2022/02/01 02:19:22;;;;;;;2.60;2.50;;;;;;;2.03;95.67;101645.06;6082303;23;20062;-70
2022/02/01 02:21:50;;;;;;;2.70;2.60;;;;;;;1.99;95.60;101654.56;6055330;23;20022;-70
2022/02/01 02:24:16;;;;;;;3.55;3.45;;;;;;;1.81;95.45;101628.72;6088871;23;20024;-70
2022/02/01 02:26:44;;;;;;;2.58;2.47;;;;;;;1.97;95.88;101648.53;6081084;23;20014;-72
2022/02/01 02:29:10;;;;;;;4.25;4.05;;;;;;;1.97;96.22;101640.75;6083726;23;20093;-70
2022/02/01 02:31:39;;;;;;;2.80;2.70;;;;;;;1.69;95.87;101588.16;6052813;23;20185;-70
2022/02/01 02:34:14;;;;;;;4.85;4.65;;;;;;;1.96;95.76;101619.16;6056067;23;20472;-70
2022/02/01 02:36:53;;;;;;;2.90;2.80;;;;;;;1.96;96.06;101618.31;6059338;23;20034;-70
2022/02/01 02:40:18;;;;;;;2.60;2.50;;;;;;;1.98;95.80;101655.41;6055444;23;20080;-70
2022/02/01 02:42:30;;;;;;;4.55;4.35;;;;;;;1.91;95.53;101628.69;6049807;23;20548;-70
2022/02/01 02:45:04;;;;;;;2.90;2.80;;;;;;;1.55;95.80;101570.06;6075545;23;20042;-69
2022/02/01 02:47:31;;;;;;;2.55;2.45;;;;;;;1.98;95.30;101640.75;6056607;23;20010;-69
2022/02/01 02:49:58;;;;;;;2.92;2.83;;;;;;;1.97;95.88;101646.78;6104525;23;20018;-70
2022/02/01 02:52:26;;;;;;;4.50;4.30;;;;;;;1.94;96.18;101628.66;6053197;23;20440;-70
2022/02/01 02:54:57;;;;;;;2.67;2.58;;;;;;;1.61;96.35;101579.56;6067065;23;20018;-69
2022/02/01 02:57:25;;;;;;;2.65;2.55;;;;;;;1.90;96.28;101639.03;6058428;23;20021;-69
2022/02/01 02:59:52;;;;;;;2.55;2.45;;;;;;;1.92;96.00;101640.75;6066254;23;20026;-70
2022/02/01 03:02:18;;;;;;;2.83;2.72;;;;;;;1.35;96.16;101546.81;6055284;23;20038;-70
2022/02/01 03:04:46;;;;;;;2.60;2.50;;;;;;;1.73;96.73;101618.34;6084840;23;20025;-70
2022/02/01 03:07:13;;;;;;;4.55;4.35;;;;;;;1.88;97.02;101641.63;6057803;23;20049;-70
2022/02/01 03:09:42;;;;;;;2.90;2.80;;;;;;;1.72;96.81;101614.88;6055233;23;20026;-69
2022/02/01 03:12:14;;;;;;;4.45;4.25;;;;;;;1.89;96.91;101629.56;6052040;23;20021;-70
2022/02/01 03:19:47;;;;;;;3.92;3.78;;;;;;;1.50;97.08;101569.19;6085076;23;20185;-70
2022/02/01 03:20:13;;;;;;;4.18;3.97;;;;;;;1.71;96.65;101612.31;6082903;23;20447;-70
2022/02/01 03:22:40;;;;;;;2.60;2.50;;;;;;;1.85;96.97;101638.19;6113393;23;20029;-70
2022/02/01 03:25:10;;;;;;;2.70;2.60;;;;;;;1.90;97.56;101626.94;6085140;23;20021;-70
2022/02/01 03:27:37;;;;;;;2.83;2.72;;;;;;;1.55;96.97;101575.25;6085072;23;20030;-70
2022/02/01 03:30:04;;;;;;;4.78;4.57;;;;;;;1.41;96.94;101557.16;6051023;23;20053;-68
2022/02/01 03:32:30;;;;;;;2.63;2.53;;;;;;;1.88;97.33;101620.91;6071513;23;20026;-70
2022/02/01 03:34:56;;;;;;;2.70;2.60;;;;;;;1.31;97.08;101534.75;6099562;23;20028;-70
2022/02/01 03:37:23;;;;;;;2.80;2.70;;;;;;;1.84;97.56;101620.91;6094259;23;20058;-71
2022/02/01 03:39:50;;;;;;;2.70;2.60;;;;;;;0.72;98.15;101440.81;6119260;23;20025;-70
2022/02/01 03:42:17;;;;;;;3.65;3.55;;;;;;;1.63;97.81;101572.66;6086231;23;20013;-70
2022/02/01 03:44:43;;;;;;;2.70;2.60;;;;;;;1.90;97.04;101614.00;6090828;23;20032;-70
2022/02/01 03:47:10;;;;;;;4.55;4.35;;;;;;;0.88;96.75;101446.84;6086567;23;20023;-70
2022/02/01 03:49:39;;;;;;;2.60;2.50;;;;;;;1.91;97.19;101614.88;6086771;23;20102;-70
2022/02/01 03:52:07;;;;;;;3.00;2.90;;;;;;;1.78;97.74;101607.16;6094426;23;20021;-71
2022/02/01 03:54:35;;;;;;;2.60;2.50;;;;;;;1.88;97.07;101601.94;6105631;23;20057;-70
2022/02/01 03:57:05;;;;;;;2.75;2.65;;;;;;;1.12;97.06;101475.28;6084891;23;20667;-70
2022/02/01 03:59:31;;;;;;;2.70;2.60;;;;;;;1.58;97.24;101528.66;6091109;23;20034;-71
2022/02/01 04:01:59;;;;;;;2.67;2.58;;;;;;;1.57;97.76;101532.97;6078484;23;20010;-71
2022/02/01 04:04:30;;;;;;;2.83;2.72;;;;;;;1.94;97.24;101587.25;6115769;23;20351;-71
2022/02/01 04:06:58;;;;;;;3.13;3.03;;;;;;;1.99;97.20;101598.47;6084528;23;20024;-70
2022/02/01 04:09:25;;;;;;;2.90;2.80;;;;;;;1.64;96.80;101525.22;6101978;23;20010;-71
2022/02/01 04:11:54;;;;;;;2.70;2.60;;;;;;;1.73;96.59;101551.06;6080647;23;20017;-70
2022/02/01 04:14:24;;;;;;;2.60;2.50;;;;;;;1.95;96.78;101594.16;6112924;23;20158;-71
2022/02/01 04:16:51;;;;;;;2.80;2.70;;;;;;;1.71;96.68;101555.41;6076126;23;20016;-71
2022/02/01 04:19:17;;;;;;;2.70;2.60;;;;;;;2.01;96.07;101600.19;6080139;23;20018;-70
2022/02/01 04:22:03;;;;;;;2.72;2.63;;;;;;;2.07;96.45;101601.03;6087550;23;20014;-71
2022/02/01 04:24:34;;;;;;;2.60;2.50;;;;;;;2.08;96.71;101596.72;6104111;23;20021;-70
2022/02/01 04:27:02;;;;;;;4.50;4.30;;;;;;;2.07;96.03;101584.66;6066547;23;20198;-70
2022/02/01 04:29:29;;;;;;;2.85;2.75;;;;;;;2.14;95.91;101589.78;6077317;23;20287;-70
2022/02/01 04:31:56;;;;;;;2.65;2.55;;;;;;;2.14;96.44;101587.19;6082689;23;20220;-70
2022/02/01 04:34:22;;;;;;;2.80;2.70;;;;;;;1.92;95.89;101555.31;6110253;23;20097;-71
2022/02/01 04:36:50;;;;;;;2.90;2.80;;;;;;;1.96;96.03;101562.22;6105758;23;20336;-70
2022/02/01 04:39:17;;;;;;;3.78;3.67;;;;;;;1.29;96.56;101444.22;6085488;23;20286;-70
2022/02/01 04:41:43;;;;;;;3.20;2.90;;;;;;;2.13;96.26;101574.28;6081326;23;20333;-71
2022/02/01 04:44:10;;;;;;;4.43;4.22;;;;;;;1.78;96.28;101506.22;6112184;23;20169;-70
2022/02/01 04:46:36;;;;;;;2.80;2.70;;;;;;;1.90;95.97;101513.06;6081678;23;21045;-71
2022/02/01 04:49:08;;;;;;;4.03;3.85;;;;;;;2.15;95.64;101568.22;6115231;23;20026;-71
2022/02/01 04:51:35;;;;;;;2.60;2.50;;;;;;;2.02;95.50;101532.88;6078843;23;20010;-70
2022/02/01 04:54:02;;;;;;;4.68;4.47;;;;;;;1.61;95.70;101455.38;6102338;23;20014;-69
2022/02/01 04:56:28;;;;;;;3.13;3.03;;;;;;;2.22;95.44;101553.50;6086814;23;20085;-70
2022/02/01 04:58:55;;;;;;;2.60;2.50;;;;;;;2.27;95.02;101546.59;6113517;23;20041;-70
2022/02/01 05:01:30;;;;;;;2.70;2.60;;;;;;;2.28;95.31;101561.25;6085708;23;20037;-70
2022/02/01 05:03:57;;;;;;;2.88;2.78;;;;;;;2.30;95.75;101561.25;6084422;23;20087;-70
2022/02/01 05:06:25;;;;;;;2.40;2.30;;;;;;;2.26;96.07;101564.72;6084842;23;20099;-70
2022/02/01 05:08:52;;;;;;;2.60;2.50;;;;;;;1.75;95.76;101498.44;6082703;23;20030;-71
2022/02/01 05:11:19;;;;;;;3.20;3.10;;;;;;;1.90;96.23;101502.69;6110904;23;20089;-71
2022/02/01 05:14:09;;;;;;;2.70;2.60;;;;;;;1.82;95.57;101498.44;6078883;23;20046;-70
2022/02/01 05:16:46;;;;;;;2.72;2.63;;;;;;;1.72;96.55;101482.91;6099105;23;20051;-70
2022/02/01 05:19:23;;;;;;;4.07;3.88;;;;;;;2.31;96.29;101589.75;6076163;23;20014;-70
2022/02/01 05:21:50;;;;;;;2.88;2.78;;;;;;;2.32;96.64;101586.28;6080192;23;20109;-70
2022/02/01 05:24:19;;;;;;;3.08;2.97;;;;;;;2.31;96.47;101583.72;6078839;23;20031;-71
2022/02/01 05:26:46;;;;;;;2.67;2.58;;;;;;;2.04;95.94;101536.31;6062338;23;20073;-70
2022/02/01 05:29:12;;;;;;;4.53;4.32;;;;;;;2.06;96.41;101541.50;6108012;23;20309;-71
2022/02/01 05:31:39;;;;;;;2.70;2.60;;;;;;;2.22;96.30;101571.63;6059985;23;20080;-70
2022/02/01 05:34:05;;;;;;;3.85;3.72;;;;;;;1.99;95.55;101531.16;6112663;23;20043;-70
2022/02/01 05:36:32;;;;;;;3.70;3.35;;;;;;;2.13;95.33;101541.47;6099418;23;20025;-70
2022/02/01 05:38:58;;;;;;;3.05;2.95;;;;;;;2.13;95.52;101538.03;6033066;23;20550;-70
2022/02/01 05:41:26;;;;;;;2.85;2.75;;;;;;;2.33;95.24;101571.63;6079899;23;20041;-70
2022/02/01 05:43:53;;;;;;;2.90;2.80;;;;;;;1.72;94.61;101463.94;6091653;23;20042;-70
2022/02/01 05:46:19;;;;;;;3.00;2.90;;;;;;;1.22;93.99;101362.34;6103618;23;20021;-70
2022/02/01 05:48:46;;;;;;;2.60;2.50;;;;;;;2.26;93.52;101542.25;6071048;23;20014;-70
2022/02/01 05:51:13;;;;;;;2.90;2.80;;;;;;;1.93;93.79;101470.78;6108419;23;20100;-70
2022/02/01 05:53:39;;;;;;;2.70;2.60;;;;;;;2.09;93.74;101466.41;6085530;23;20403;-70
2022/02/01 05:56:05;;;;;;;4.55;4.35;;;;;;;2.39;92.82;101509.41;6082683;23;20077;-70
2022/02/01 05:58:32;;;;;;;2.70;2.60;;;;;;;1.84;92.74;101432.00;6087190;23;20018;-71
2022/02/01 06:00:58;;;;;;;2.95;2.83;;;;;;;2.01;92.39;101435.38;6110569;23;20094;-71
2022/02/01 06:03:25;;;;;;;2.70;2.60;;;;;;;1.94;92.46;101421.56;6081601;23;20014;-71
2022/02/01 06:05:51;;;;;;;2.58;2.47;;;;;;;1.81;92.33;101408.72;6077903;23;20033;-71
2022/02/01 06:08:18;;;;;;;2.70;2.60;;;;;;;2.18;91.92;101477.56;6078597;23;20606;-70
2022/02/01 06:10:44;;;;;;;2.90;2.80;;;;;;;2.28;91.93;101475.78;6087799;23;20033;-70
2022/02/01 06:13:11;;;;;;;4.55;4.35;;;;;;;1.34;92.39;101322.69;6058662;23;20024;-70
2022/02/01 06:15:38;;;;;;;3.28;3.03;;;;;;;1.96;92.85;101424.16;6064881;23;20405;-70
2022/02/01 06:18:05;;;;;;;4.35;4.15;;;;;;;2.32;92.95;101481.81;6044570;23;20021;-71
2022/02/01 06:20:31;;;;;;;2.80;2.70;;;;;;;2.03;93.15;101425.88;6084791;23;20033;-70
2022/02/01 06:22:58;;;;;;;3.10;3.00;;;;;;;1.86;92.92;101394.88;6059246;23;20069;-70
2022/02/01 06:25:58;;;;;;;2.78;2.67;;;;;;;2.18;92.68;101454.25;6084639;23;20026;-71
2022/02/01 06:28:18;;;;;;;2.65;2.55;;;;;;;2.36;92.62;101479.19;6048070;23;20372;-70
2022/02/01 06:30:46;;;;;;;2.67;2.58;;;;;;;2.37;91.77;101472.28;6081975;23;20471;-71
2022/02/01 06:33:13;;;;;;;4.60;4.40;;;;;;;2.38;92.13;101476.59;6055926;23;20057;-70
2022/02/01 06:35:39;;;;;;;2.58;2.47;;;;;;;1.90;92.20;101403.50;6087278;23;20066;-71
2022/02/01 06:38:07;;;;;;;4.55;4.35;;;;;;;2.38;92.40;101485.22;6045330;23;20249;-70
2022/02/01 06:40:34;;;;;;;2.80;2.70;;;;;;;2.38;92.48;101493.00;6082910;23;20502;-70
2022/02/01 06:43:01;;;;;;;3.65;3.45;;;;;;;2.38;92.88;101480.03;6053966;23;20026;-70
2022/02/01 06:45:28;;;;;;;3.00;2.90;;;;;;;2.45;92.44;101474.84;6063777;23;20018;-70
2022/02/01 06:47:55;;;;;;;2.60;2.50;;;;;;;2.28;92.48;101456.78;6052526;23;20478;-70
2022/02/01 06:50:23;;;;;;;2.72;2.63;;;;;;;2.51;91.89;101480.84;6093617;23;20407;-70
2022/02/01 06:52:56;;;;;;;3.25;3.15;;;;;;;2.56;92.17;101471.28;6083730;23;20033;-70
2022/02/01 06:58:01;;;;;;;3.28;3.17;;;;;;;2.44;92.67;101447.22;6055896;23;20063;-70
2022/02/01 07:00:28;;;;;;;2.60;2.50;;;;;;;1.98;92.67;101370.66;6075438;23;20038;-70
2022/02/01 07:02:54;;;;;;;2.63;2.53;;;;;;;2.25;92.58;101402.44;6054873;23;20499;-70
2022/02/01 07:05:21;;;;;;;2.70;2.60;;;;;;;2.40;93.03;101426.50;6090650;23;20030;-70
2022/02/01 07:07:50;;;;;;;2.65;2.55;;;;;;;2.16;93.75;101370.53;6053760;23;20449;-70
2022/02/01 07:10:18;;;;;;;3.40;3.30;;;;;;;2.61;93.36;101445.38;6089113;23;20190;-71
2022/02/01 07:12:45;;;;;;;2.80;2.70;;;;;;;2.59;93.62;101463.50;6029581;23;20019;-70
2022/02/01 07:15:11;;;;;;;4.97;4.78;;;;;;;2.62;93.17;101449.66;6104781;23;20113;-70
2022/02/01 07:17:51;;;;;;;2.80;2.70;;;;;;;2.45;93.90;101418.72;6058390;23;20025;-68
2022/02/01 07:20:18;;;;;;;5.28;5.07;;;;;;;2.17;93.66;101343.78;6054918;23;20034;-68
2022/02/01 07:22:47;;;;;;;2.90;2.80;;;;;;;2.71;94.38;101426.28;6059299;23;20054;-67
2022/02/01 07:25:27;;;;;;;4.25;4.05;;;;;;;2.74;93.74;101427.97;6036241;23;20648;-68
2022/02/01 07:27:54;;;;;;;2.78;2.67;;;;;;;2.77;93.72;101433.16;6060601;23;20050;-68
2022/02/01 07:30:27;;;;;;;2.88;2.78;;;;;;;2.79;94.07;101442.63;6087555;23;20029;-68
2022/02/01 07:32:55;;;;;;;2.83;2.72;;;;;;;2.49;94.33;101372.91;6051342;23;20032;-68
2022/02/01 07:35:24;;;;;;;2.90;2.80;;;;;;;2.84;94.86;101423.59;6109664;23;20088;-68
2022/02/01 07:37:53;;;;;;;2.80;2.70;;;;;;;2.48;94.35;101369.44;6055931;23;20261;-67
2022/02/01 07:40:19;;;;;;;3.00;2.90;;;;;;;2.90;94.05;101423.53;6062470;23;20524;-68
2022/02/01 07:42:47;;;;;;;19.23;3.55;;;;;;;2.99;94.01;101433.84;6062957;23;20026;-68
2022/02/01 07:45:15;;;;;;;4.75;4.55;;;;;;;2.99;93.94;101433.84;6070174;23;20008;-68
2022/02/01 07:47:42;;;;;;;2.70;2.60;;;;;;;1.83;93.84;101237.03;6055636;23;20273;-68
2022/02/01 07:50:09;;;;;;;4.65;4.45;;;;;;;2.99;94.45;101418.28;6079673;23;20148;-68
2022/02/01 07:52:36;;;;;;;2.70;2.60;;;;;;;2.44;94.23;101321.13;6052767;23;20936;-67
2022/02/01 07:55:03;;;;;;;4.07;3.90;;;;;;;3.09;95.09;101435.47;6082569;23;20017;-68
2022/02/01 07:57:30;;;;;;;3.05;2.95;;;;;;;3.15;93.94;101434.56;6051596;23;20030;-67
2022/02/01 07:59:57;;;;;;;3.25;3.15;;;;;;;3.12;94.64;101414.66;6051262;23;20037;-67
2022/02/01 08:02:25;;;;;;;3.28;3.17;;;;;;;2.57;94.95;101343.47;6078356;23;20049;-67
2022/02/01 08:05:12;;;;;;;4.95;4.75;;;;;;;2.90;94.89;101340.56;6042204;23;20033;-68
2022/02/01 08:07:39;;;;;;;2.90;2.80;;;;;;;3.22;94.42;101388.66;6075670;23;20384;-68
2022/02/01 08:10:10;;;;;;;4.57;4.38;;;;;;;2.79;94.08;101312.19;6046778;23;20232;-68
2022/02/01 08:18:22;;;;;;;5.30;5.05;;;;;;;2.72;96.55;101301.00;6067658;23;20386;-68
2022/02/01 08:20:55;;;;;;;3.00;2.90;;;;;;;3.36;96.21;101405.78;6024278;23;20037;-68
2022/02/01 08:23:22;;;;;;;3.00;2.90;;;;;;;3.33;96.89;101404.97;6036807;23;20034;-67
2022/02/01 08:25:53;;;;;;;3.00;2.90;;;;;;;3.29;98.28;101390.31;6049213;23;20026;-68
2022/02/01 08:28:21;;;;;;;3.03;2.92;;;;;;;3.46;97.64;101393.56;6087663;23;20020;-67
2022/02/01 08:30:51;;;;;;;3.10;3.00;;;;;;;2.89;98.45;101308.63;6045480;23;20026;-69
2022/02/01 08:33:18;;;;;;;3.20;3.10;;;;;;;3.14;98.43;101327.34;6073880;23;20020;-67
2022/02/01 08:35:45;;;;;;;3.33;3.22;;;;;;;3.43;98.53;101362.47;6055585;23;20026;-68
2022/02/01 08:38:18;;;;;;;3.80;3.63;;;;;;;3.33;99.54;101350.50;6068626;23;20025;-70
2022/02/01 08:40:46;;;;;;;3.30;3.20;;;;;;;3.35;99.61;101359.13;6027369;23;20280;-70
2022/02/01 08:43:15;;;;;;;4.85;4.65;;;;;;;3.42;100.00;101370.28;6076089;23;20037;-70
2022/02/01 08:45:42;;;;;;;3.28;3.17;;;;;;;3.10;100.00;101306.66;6047414;23;20022;-70
2022/02/01 08:48:10;;;;;;;5.25;5.00;;;;;;;3.42;100.00;101355.56;6058238;23;20411;-69
2022/02/01 08:50:37;;;;;;;3.40;3.30;;;;;;;3.29;100.00;101330.66;6043640;23;20251;-69
2022/02/01 08:53:14;;;;;;;5.30;5.10;;;;;;;3.39;100.00;101334.84;6069626;23;20202;-68
2022/02/01 08:56:02;;;;;;;3.20;3.10;;;;;;;3.27;100.00;101329.78;6079791;23;20014;-69
2022/02/01 08:58:30;;;;;;;3.08;2.97;;;;;;;3.09;100.00;101279.88;6050769;23;20033;-69
2022/02/01 09:00:58;;;;;;;3.30;3.20;;;;;;;3.48;100.00;101334.72;6042867;23;20461;-69
2022/02/01 09:03:25;;;;;;;3.25;3.15;;;;;;;3.55;100.00;101331.19;6043078;23;20031;-67
2022/02/01 09:05:52;;;;;;;3.13;3.03;;;;;;;3.52;100.00;101323.41;6057796;23;20101;-67
2022/02/01 09:08:22;;;;;;;3.45;3.35;;;;;;;3.45;100.00;101311.44;6051844;23;20022;-68
2022/02/01 09:10:49;;;;;;;3.20;3.10;;;;;;;3.11;100.00;101254.78;6048922;23;20491;-69
2022/02/01 09:13:15;;;;;;;3.40;3.30;;;;;;;3.58;100.00;101310.38;6087214;23;20070;-68
2022/02/01 09:15:42;;;;;;;3.20;3.10;;;;;;;3.61;100.00;101296.50;6083956;23;20186;-68
2022/02/01 09:18:09;;;;;;;5.20;4.97;;;;;;;3.43;100.00;101240.53;6105659;23;20500;-67
2022/02/01 09:20:36;;;;;;;3.10;3.00;;;;;;;3.78;100.00;101296.25;6084915;23;20050;-69
2022/02/01 09:23:03;;;;;;;4.57;4.38;;;;;;;3.71;100.00;101295.50;6099460;23;20033;-70
2022/02/01 09:25:30;;;;;;;3.10;3.00;;;;;;;3.58;100.00;101268.00;6084684;23;20516;-68
2022/02/01 09:27:56;;;;;;;3.80;3.65;;;;;;;3.72;100.00;101284.22;6110290;23;20084;-70
2022/02/01 09:30:23;;;;;;;3.58;3.47;;;;;;;3.74;100.00;101276.41;6058044;23;20388;-66
2022/02/01 09:32:50;;;;;;;3.40;3.30;;;;;;;3.71;100.00;101247.88;6109695;23;20039;-70
2022/02/01 09:35:17;;;;;;;3.40;3.30;;;;;;;3.33;100.00;101174.09;6083672;23;20080;-70
2022/02/01 09:37:43;;;;;;;4.20;3.90;;;;;;;3.85;100.00;101251.16;6112676;23;20348;-68
2022/02/01 09:40:30;;;;;;;3.40;3.30;;;;;;;3.78;100.00;101233.94;6078603;23;20018;-70
2022/02/01 09:42:56;;;;;;;3.60;3.40;;;;;;;3.40;100.00;101150.59;6119875;23;20021;-70
2022/02/01 09:45:23;;;;;;;3.10;3.00;;;;;;;3.54;100.00;101184.13;6085051;23;20093;-70
2022/02/01 09:48:03;;;;;;;4.75;4.55;;;;;;;3.68;100.00;101194.28;6059870;23;20471;-70
2022/02/01 09:50:30;;;;;;;3.13;3.03;;;;;;;3.84;100.00;101210.50;6054523;23;20464;-70
2022/02/01 09:52:56;;;;;;;3.30;3.20;;;;;;;3.91;100.00;101190.47;6077750;23;20036;-68
2022/02/01 09:55:23;;;;;;;3.30;3.20;;;;;;;3.79;100.00;101163.00;6054754;23;20425;-66
2022/02/01 09:57:54;;;;;;;3.10;3.00;;;;;;;4.07;100.00;101183.28;6078853;23;20006;-68
2022/02/01 10:00:21;;;;;;;3.15;3.05;;;;;;;4.13;100.00;101173.66;6083656;23;20010;-68
2022/02/01 10:03:04;;;;;;;4.43;4.22;;;;;;;3.89;100.00;101127.31;6114615;23;20025;-68
2022/02/01 10:05:32;;;;;;;3.25;3.15;;;;;;;4.05;100.00;101128.78;6083475;23;20194;-68
2022/02/01 10:07:58;;;;;;;4.47;4.30;;;;;;;4.23;100.00;101165.66;6110569;23;20046;-67
2022/02/01 10:10:29;;;;;;;3.20;3.10;;;;;;;4.20;100.00;101154.44;6084938;23;20017;-68
2022/02/01 10:13:13;;;;;;;3.03;2.92;;;;;;;4.38;100.00;101148.06;6079331;23;20072;-68
2022/02/01 10:15:50;;;;;;;3.00;2.90;;;;;;;4.27;100.00;101129.25;6119829;23;20037;-67
2022/02/01 10:18:28;;;;;;;3.95;3.75;;;;;;;4.36;100.00;101108.25;6069088;23;20044;-68
2022/02/01 10:21:03;;;;;;;3.00;2.90;;;;;;;4.32;100.00;101101.41;6109464;23;20291;-68
2022/02/01 10:23:30;;;;;;;3.20;3.10;;;;;;;4.38;100.00;101110.81;6090311;23;20049;-68
2022/02/01 10:25:58;;;;;;;3.42;3.33;;;;;;;3.85;100.00;101020.09;6107032;23;20026;-68
2022/02/01 10:28:29;;;;;;;3.38;3.17;;;;;;;4.36;100.00;101103.06;6083964;23;20166;-69
2022/02/01 10:30:57;;;;;;;3.20;3.10;;;;;;;3.98;100.00;101044.91;6060107;23;20034;-68
2022/02/01 10:33:53;;;;;;;3.75;3.55;;;;;;;4.03;100.00;101041.38;6082027;23;20036;-68
2022/02/01 10:36:20;;;;;;;3.08;2.97;;;;;;;4.46;100.00;101118.47;6075962;23;20080;-70
2022/02/01 10:38:47;;;;;;;3.10;3.00;;;;;;;4.49;100.00;101111.47;6089655;23;20289;-68
2022/02/01 10:41:14;;;;;;;5.07;4.88;;;;;;;4.09;100.00;101033.47;6082557;23;20016;-68
2022/02/01 10:43:42;;;;;;;3.83;3.63;;;;;;;4.55;100.00;101107.88;6070874;23;20042;-68
2022/02/01 10:46:12;;;;;;;4.78;4.57;;;;;;;4.52;100.00;101084.56;6073366;23;20017;-66
2022/02/01 10:48:45;;;;;;;3.20;3.10;;;;;;;4.46;100.00;101072.53;6088196;23;20042;-68
2022/02/01 10:51:20;;;;;;;4.75;4.55;;;;;;;4.08;100.00;101018.78;6083395;23;20160;-68
2022/02/01 10:53:47;;;;;;;3.10;3.00;;;;;;;4.12;100.00;100978.88;6106812;23;20381;-68
2022/02/01 10:56:17;;;;;;;4.28;4.07;;;;;;;4.65;100.00;101062.63;6082350;23;20916;-68
2022/02/01 10:58:44;;;;;;;3.30;3.20;;;;;;;4.69;100.00;101042.59;6090231;23;20022;-68
2022/02/01 11:01:12;;;;;;;4.75;4.55;;;;;;;4.78;100.00;101045.00;6102870;23;20099;-68
2022/02/01 11:03:44;;;;;;;3.20;3.10;;;;;;;4.78;100.00;101055.41;6081833;23;20190;-68
2022/02/01 11:06:12;;;;;;;5.45;5.25;;;;;;;4.76;100.00;101057.19;6080775;23;20021;-67
2022/02/01 11:08:41;;;;;;;3.30;3.20;;;;;;;4.42;100.00;100997.28;6091741;23;20029;-68
2022/02/01 11:11:14;;;;;;;5.15;4.95;;;;;;;4.78;100.00;101039.81;6091884;23;20053;-68
2022/02/01 11:13:45;;;;;;;3.38;3.28;;;;;;;3.73;100.00;100899.19;6110827;23;20024;-68
2022/02/01 11:16:24;;;;;;;5.38;5.18;;;;;;;4.73;100.00;101000.91;6078115;23;20212;-67
2022/02/01 11:18:54;;;;;;;3.20;3.10;;;;;;;4.80;100.00;100999.03;6115935;23;20474;-68
2022/02/01 11:21:20;;;;;;;3.83;3.58;;;;;;;4.92;100.00;100988.31;6081101;23;20088;-68
2022/02/01 11:24:10;;;;;;;3.75;3.65;;;;;;;5.06;100.00;101001.00;6105665;23;20021;-68
2022/02/01 11:26:39;;;;;;;3.00;2.90;;;;;;;5.03;100.00;100988.03;6080508;23;20506;-68
2022/02/01 11:29:28;;;;;;;3.30;3.20;;;;;;;4.65;100.00;100921.38;6116965;23;20033;-68
2022/02/01 11:31:59;;;;;;;3.35;3.25;;;;;;;5.08;100.00;100980.16;6082448;23;20444;-68
2022/02/01 11:34:31;;;;;;;3.35;3.25;;;;;;;4.55;100.00;100879.16;6057540;23;20451;-67
2022/02/01 11:37:10;;;;;;;3.25;3.15;;;;;;;5.19;100.00;100970.31;6114703;23;20021;-68
2022/02/01 11:39:50;;;;;;;3.15;3.05;;;;;;;5.04;100.00;100931.69;6082687;23;20055;-68
2022/02/01 11:42:18;;;;;;;4.25;4.05;;;;;;;5.06;100.00;100922.09;6101282;23;20076;-68
2022/02/01 11:44:46;;;;;;;3.38;3.28;;;;;;;5.18;100.00;100935.66;6091474;23;20032;-68
2022/02/01 11:47:17;;;;;;;3.20;3.10;;;;;;;5.19;100.00;100932.16;6106188;23;20114;-68
2022/02/01 11:49:57;;;;;;;3.30;3.20;;;;;;;5.27;100.00;100936.28;6086715;23;20251;-67
2022/02/01 11:52:26;;;;;;;3.22;3.13;;;;;;;5.24;100.00;100929.44;6088363;23;20624;-68
2022/02/01 11:55:06;;;;;;;3.17;3.08;;;;;;;5.20;100.00;100928.66;6088919;23;20100;-68
2022/02/01 11:57:54;;;;;;;3.20;3.10;;;;;;;5.19;100.00;100919.16;6109482;23;20065;-69
2022/02/01 12:00:25;;;;;;;3.10;3.00;;;;;;;5.19;100.00;100902.66;6083915;23;20015;-68
2022/02/01 12:02:58;;;;;;;3.33;3.22;;;;;;;5.37;100.00;100920.41;6080155;23;20018;-67
2022/02/01 12:05:36;;;;;;;3.17;3.08;;;;;;;5.34;100.00;100927.44;6067001;23;20013;-67
2022/02/01 12:08:13;;;;;;;4.75;4.55;;;;;;;5.18;100.00;100886.22;6080833;23;20629;-69
2022/02/01 12:10:41;;;;;;;3.30;3.20;;;;;;;5.40;100.00;100894.28;6082186;23;20025;-69
2022/02/01 12:13:11;;;;;;;5.20;5.00;;;;;;;5.25;100.00;100880.84;6081440;23;20039;-69
2022/02/01 12:15:40;;;;;;;3.72;3.58;;;;;;;5.49;100.00;100903.59;6073046;23;20052;-68
2022/02/01 12:18:40;;;;;;;5.53;5.30;;;;;;;5.50;100.00;100892.28;6083570;23;20186;-68
2022/02/01 12:21:17;;;;;;;5.57;5.38;;;;;;;5.57;100.00;100895.56;6095292;23;20802;-68
2022/02/01 12:23:46;;;;;;;3.72;3.60;;;;;;;4.93;100.00;100801.91;6065410;23;20025;-68
2022/02/01 12:26:30;;;;;;;5.25;5.05;;;;;;;5.50;100.00;100891.44;6108261;23;20009;-68
2022/02/01 12:28:58;;;;;;;3.50;3.40;;;;;;;5.44;100.00;100869.03;6094002;23;20352;-68
2022/02/01 12:31:28;;;;;;;3.58;3.47;;;;;;;5.60;100.00;100882.47;6114112;23;20098;-68
2022/02/01 12:33:57;;;;;;;3.45;3.35;;;;;;;5.73;100.00;100872.53;6082700;23;20083;-67
2022/02/01 12:36:35;;;;;;;3.28;3.17;;;;;;;5.33;100.00;100809.50;6087457;23;20135;-68
2022/02/01 12:39:21;;;;;;;3.33;3.22;;;;;;;5.56;100.00;100845.25;6101027;23;20022;-66
2022/02/01 12:46:57;;;;;;;3.58;3.47;;;;;;;5.71;100.00;100837.88;6088231;23;20306;-70
2022/02/01 12:49:45;;;;;;;3.40;3.30;;;;;;;5.77;100.00;100807.31;6107329;23;20118;-68
2022/02/01 12:52:18;;;;;;;5.28;5.07;;;;;;;5.41;100.00;100759.78;6081183;23;20494;-68
2022/02/01 12:55:04;;;;;;;3.45;3.35;;;;;;;4.60;100.00;100614.78;6088166;23;20487;-69
2022/02/01 12:57:32;;;;;;;3.60;3.50;;;;;;;5.86;100.00;100820.97;6088521;23;20017;-68
2022/02/01 13:00:05;;;;;;;4.30;4.13;;;;;;;5.90;100.00;100813.00;6083097;23;20355;-69
2022/02/01 13:02:33;;;;;;;3.60;3.50;;;;;;;5.81;100.00;100813.25;6082766;23;20584;-68